sensor_id;sensor_type;location;lat;lon;timestamp;P1;durP1;ratioP1;P2;durP2;ratioP2
17173;SDS011;8702;48.130;-1.696;2022-07-23T00:00:39;6.83;;;2.60;;
17173;SDS011;8702;48.130;-1.696;2022-07-23T00:03:07;4.10;;;2.30;;
17173;SDS011;8702;48.130;-1.696;2022-07-23T00:05:34;5.83;;;2.63;;
17173;SDS011;8702;48.130;-1.696;2022-07-23T00:08:01;5.90;;;2.97;;
17173;SDS011;8702;48.130;-1.696;2022-07-23T00:10:28;4.97;;;2.53;;
17173;SDS011;8702;48.130;-1.696;2022-07-23T00:12:55;6.93;;;2.30;;
17173;SDS011;8702;48.130;-1.696;2022-07-23T00:15:22;4.57;;;2.63;;
17173;SDS011;8702;48.130;-1.696;2022-07-23T00:17:49;6.43;;;2.80;;
17173;SDS011;8702;48.130;-1.696;2022-07-23T00:20:18;6.70;;;3.13;;
17173;SDS011;8702;48.130;-1.696;2022-07-23T00:22:46;7.60;;;3.00;;
17173;SDS011;8702;48.130;-1.696;2022-07-23T00:25:13;5.37;;;2.73;;
17173;SDS011;8702;48.130;-1.696;2022-07-23T00:27:40;5.07;;;2.50;;
17173;SDS011;8702;48.130;-1.696;2022-07-23T00:30:07;4.60;;;2.63;;
17173;SDS011;8702;48.130;-1.696;2022-07-23T00:32:44;5.50;;;3.07;;
17173;SDS011;8702;48.130;-1.696;2022-07-23T00:35:11;6.67;;;2.70;;
17173;SDS011;8702;48.130;-1.696;2022-07-23T00:37:40;7.30;;;2.97;;
17173;SDS011;8702;48.130;-1.696;2022-07-23T00:40:07;7.17;;;2.80;;
17173;SDS011;8702;48.130;-1.696;2022-07-23T00:42:36;5.63;;;2.50;;
17173;SDS011;8702;48.130;-1.696;2022-07-23T00:45:04;5.70;;;2.83;;
17173;SDS011;8702;48.130;-1.696;2022-07-23T00:47:31;5.43;;;2.67;;
17173;SDS011;8702;48.130;-1.696;2022-07-23T00:49:59;6.27;;;2.63;;
17173;SDS011;8702;48.130;-1.696;2022-07-23T00:52:26;5.57;;;2.80;;
17173;SDS011;8702;48.130;-1.696;2022-07-23T00:54:54;7.70;;;3.20;;
17173;SDS011;8702;48.130;-1.696;2022-07-23T00:57:21;5.00;;;2.90;;
17173;SDS011;8702;48.130;-1.696;2022-07-23T00:59:48;6.43;;;3.00;;
17173;SDS011;8702;48.130;-1.696;2022-07-23T01:02:15;4.27;;;2.57;;
17173;SDS011;8702;48.130;-1.696;2022-07-23T01:04:42;5.23;;;2.60;;
17173;SDS011;8702;48.130;-1.696;2022-07-23T01:07:09;8.13;;;3.10;;
17173;SDS011;8702;48.130;-1.696;2022-07-23T01:09:36;6.50;;;2.73;;
17173;SDS011;8702;48.130;-1.696;2022-07-23T01:12:06;5.47;;;3.50;;
17173;SDS011;8702;48.130;-1.696;2022-07-23T01:14:33;5.47;;;2.73;;
17173;SDS011;8702;48.130;-1.696;2022-07-23T01:17:01;5.13;;;2.70;;
17173;SDS011;8702;48.130;-1.696;2022-07-23T01:19:28;5.27;;;3.30;;
17173;SDS011;8702;48.130;-1.696;2022-07-23T01:21:55;6.93;;;3.47;;
17173;SDS011;8702;48.130;-1.696;2022-07-23T01:24:25;6.67;;;3.10;;
17173;SDS011;8702;48.130;-1.696;2022-07-23T01:26:54;8.57;;;3.30;;
17173;SDS011;8702;48.130;-1.696;2022-07-23T01:29:21;10.53;;;3.43;;
17173;SDS011;8702;48.130;-1.696;2022-07-23T01:31:48;7.20;;;3.13;;
17173;SDS011;8702;48.130;-1.696;2022-07-23T01:34:15;6.77;;;3.10;;
17173;SDS011;8702;48.130;-1.696;2022-07-23T01:36:42;6.93;;;3.07;;
17173;SDS011;8702;48.130;-1.696;2022-07-23T01:39:10;5.00;;;2.90;;
17173;SDS011;8702;48.130;-1.696;2022-07-23T01:41:38;4.83;;;2.93;;
17173;SDS011;8702;48.130;-1.696;2022-07-23T01:44:05;4.43;;;2.87;;
17173;SDS011;8702;48.130;-1.696;2022-07-23T01:46:32;7.27;;;3.83;;
17173;SDS011;8702;48.130;-1.696;2022-07-23T01:49:00;6.43;;;3.27;;
17173;SDS011;8702;48.130;-1.696;2022-07-23T01:51:27;5.33;;;2.93;;
17173;SDS011;8702;48.130;-1.696;2022-07-23T01:53:54;7.50;;;3.30;;
17173;SDS011;8702;48.130;-1.696;2022-07-23T01:56:21;4.17;;;3.13;;
17173;SDS011;8702;48.130;-1.696;2022-07-23T01:58:49;5.33;;;2.87;;
17173;SDS011;8702;48.130;-1.696;2022-07-23T02:01:16;6.20;;;3.07;;
17173;SDS011;8702;48.130;-1.696;2022-07-23T02:03:43;5.63;;;3.27;;
17173;SDS011;8702;48.130;-1.696;2022-07-23T02:06:10;8.47;;;3.60;;
17173;SDS011;8702;48.130;-1.696;2022-07-23T02:08:37;7.43;;;3.60;;
17173;SDS011;8702;48.130;-1.696;2022-07-23T02:11:04;7.13;;;3.40;;
17173;SDS011;8702;48.130;-1.696;2022-07-23T02:13:32;6.17;;;3.20;;
17173;SDS011;8702;48.130;-1.696;2022-07-23T02:16:00;6.93;;;3.40;;
17173;SDS011;8702;48.130;-1.696;2022-07-23T02:18:27;5.07;;;3.10;;
17173;SDS011;8702;48.130;-1.696;2022-07-23T02:20:54;5.83;;;3.57;;
17173;SDS011;8702;48.130;-1.696;2022-07-23T02:23:21;6.07;;;3.63;;
17173;SDS011;8702;48.130;-1.696;2022-07-23T02:25:48;6.47;;;3.47;;
17173;SDS011;8702;48.130;-1.696;2022-07-23T02:28:15;8.43;;;3.90;;
17173;SDS011;8702;48.130;-1.696;2022-07-23T02:30:42;6.20;;;3.00;;
17173;SDS011;8702;48.130;-1.696;2022-07-23T02:33:10;7.37;;;3.57;;
17173;SDS011;8702;48.130;-1.696;2022-07-23T02:35:37;6.63;;;3.80;;
17173;SDS011;8702;48.130;-1.696;2022-07-23T02:38:04;7.93;;;3.90;;
17173;SDS011;8702;48.130;-1.696;2022-07-23T02:40:31;4.90;;;3.20;;
17173;SDS011;8702;48.130;-1.696;2022-07-23T02:42:58;8.03;;;3.70;;
17173;SDS011;8702;48.130;-1.696;2022-07-23T02:45:25;6.30;;;3.37;;
17173;SDS011;8702;48.130;-1.696;2022-07-23T02:47:52;5.90;;;2.97;;
17173;SDS011;8702;48.130;-1.696;2022-07-23T02:50:21;7.60;;;3.90;;
17173;SDS011;8702;48.130;-1.696;2022-07-23T02:52:48;6.63;;;3.83;;
17173;SDS011;8702;48.130;-1.696;2022-07-23T02:55:15;7.17;;;3.23;;
17173;SDS011;8702;48.130;-1.696;2022-07-23T02:57:42;8.50;;;3.83;;
17173;SDS011;8702;48.130;-1.696;2022-07-23T03:00:09;5.90;;;3.50;;
17173;SDS011;8702;48.130;-1.696;2022-07-23T03:02:37;7.63;;;3.90;;
17173;SDS011;8702;48.130;-1.696;2022-07-23T03:05:04;7.90;;;3.93;;
17173;SDS011;8702;48.130;-1.696;2022-07-23T03:07:33;7.47;;;3.50;;
17173;SDS011;8702;48.130;-1.696;2022-07-23T03:10:00;8.23;;;3.97;;
17173;SDS011;8702;48.130;-1.696;2022-07-23T03:12:27;5.87;;;3.57;;
17173;SDS011;8702;48.130;-1.696;2022-07-23T03:14:54;9.43;;;4.17;;
17173;SDS011;8702;48.130;-1.696;2022-07-23T03:17:21;9.70;;;3.47;;
17173;SDS011;8702;48.130;-1.696;2022-07-23T03:19:48;5.93;;;3.57;;
17173;SDS011;8702;48.130;-1.696;2022-07-23T03:22:15;6.30;;;3.30;;
17173;SDS011;8702;48.130;-1.696;2022-07-23T03:24:43;3.80;;;3.40;;
17173;SDS011;8702;48.130;-1.696;2022-07-23T03:27:19;6.67;;;3.50;;
17173;SDS011;8702;48.130;-1.696;2022-07-23T03:29:47;9.90;;;4.23;;
17173;SDS011;8702;48.130;-1.696;2022-07-23T03:32:14;7.50;;;4.37;;
17173;SDS011;8702;48.130;-1.696;2022-07-23T03:34:41;6.23;;;3.60;;
17173;SDS011;8702;48.130;-1.696;2022-07-23T03:37:07;7.20;;;3.73;;
17173;SDS011;8702;48.130;-1.696;2022-07-23T03:39:34;9.80;;;4.03;;
17173;SDS011;8702;48.130;-1.696;2022-07-23T03:42:03;8.97;;;4.30;;
17173;SDS011;8702;48.130;-1.696;2022-07-23T03:44:30;5.80;;;3.50;;
17173;SDS011;8702;48.130;-1.696;2022-07-23T03:46:57;9.73;;;4.13;;
17173;SDS011;8702;48.130;-1.696;2022-07-23T03:49:24;5.60;;;3.63;;
17173;SDS011;8702;48.130;-1.696;2022-07-23T03:51:52;7.50;;;4.10;;
17173;SDS011;8702;48.130;-1.696;2022-07-23T03:54:18;6.53;;;3.80;;
17173;SDS011;8702;48.130;-1.696;2022-07-23T03:56:45;8.07;;;3.83;;
17173;SDS011;8702;48.130;-1.696;2022-07-23T03:59:14;6.70;;;3.50;;
17173;SDS011;8702;48.130;-1.696;2022-07-23T04:01:41;7.93;;;3.93;;
17173;SDS011;8702;48.130;-1.696;2022-07-23T04:04:08;7.50;;;3.70;;
17173;SDS011;8702;48.130;-1.696;2022-07-23T04:06:35;5.97;;;3.60;;
17173;SDS011;8702;48.130;-1.696;2022-07-23T04:09:02;6.37;;;3.90;;
17173;SDS011;8702;48.130;-1.696;2022-07-23T04:11:29;9.23;;;4.27;;
17173;SDS011;8702;48.130;-1.696;2022-07-23T04:13:57;7.03;;;3.73;;
17173;SDS011;8702;48.130;-1.696;2022-07-23T04:16:25;7.43;;;4.13;;
17173;SDS011;8702;48.130;-1.696;2022-07-23T04:18:53;5.37;;;3.97;;
17173;SDS011;8702;48.130;-1.696;2022-07-23T04:21:20;7.77;;;4.57;;
17173;SDS011;8702;48.130;-1.696;2022-07-23T04:23:47;9.63;;;4.00;;
17173;SDS011;8702;48.130;-1.696;2022-07-23T04:26:14;8.60;;;4.60;;
17173;SDS011;8702;48.130;-1.696;2022-07-23T04:28:41;10.27;;;4.57;;
17173;SDS011;8702;48.130;-1.696;2022-07-23T04:31:08;9.70;;;4.03;;
17173;SDS011;8702;48.130;-1.696;2022-07-23T04:33:36;7.53;;;4.67;;
17173;SDS011;8702;48.130;-1.696;2022-07-23T04:36:03;7.50;;;4.60;;
17173;SDS011;8702;48.130;-1.696;2022-07-23T04:38:31;10.03;;;4.53;;
17173;SDS011;8702;48.130;-1.696;2022-07-23T04:40:58;8.37;;;4.33;;
17173;SDS011;8702;48.130;-1.696;2022-07-23T04:43:25;9.07;;;4.70;;
17173;SDS011;8702;48.130;-1.696;2022-07-23T04:45:53;7.83;;;4.17;;
17173;SDS011;8702;48.130;-1.696;2022-07-23T04:48:20;10.10;;;4.30;;
17173;SDS011;8702;48.130;-1.696;2022-07-23T04:50:48;8.43;;;4.70;;
17173;SDS011;8702;48.130;-1.696;2022-07-23T04:53:15;7.30;;;4.23;;
17173;SDS011;8702;48.130;-1.696;2022-07-23T04:55:43;10.17;;;4.53;;
17173;SDS011;8702;48.130;-1.696;2022-07-23T04:58:23;9.43;;;4.77;;
17173;SDS011;8702;48.130;-1.696;2022-07-23T05:00:50;9.70;;;4.53;;
17173;SDS011;8702;48.130;-1.696;2022-07-23T05:03:17;8.30;;;4.47;;
17173;SDS011;8702;48.130;-1.696;2022-07-23T05:05:44;10.27;;;4.90;;
17173;SDS011;8702;48.130;-1.696;2022-07-23T05:08:11;12.50;;;4.80;;
17173;SDS011;8702;48.130;-1.696;2022-07-23T05:10:38;5.90;;;4.13;;
17173;SDS011;8702;48.130;-1.696;2022-07-23T05:13:05;6.93;;;4.57;;
17173;SDS011;8702;48.130;-1.696;2022-07-23T05:15:34;8.67;;;4.63;;
17173;SDS011;8702;48.130;-1.696;2022-07-23T05:18:01;6.00;;;4.07;;
17173;SDS011;8702;48.130;-1.696;2022-07-23T05:20:28;9.13;;;4.40;;
17173;SDS011;8702;48.130;-1.696;2022-07-23T05:22:55;7.57;;;4.47;;
17173;SDS011;8702;48.130;-1.696;2022-07-23T05:25:22;10.97;;;4.33;;
17173;SDS011;8702;48.130;-1.696;2022-07-23T05:27:49;8.93;;;4.67;;
17173;SDS011;8702;48.130;-1.696;2022-07-23T05:30:16;7.60;;;4.53;;
17173;SDS011;8702;48.130;-1.696;2022-07-23T05:32:47;5.07;;;3.80;;
17173;SDS011;8702;48.130;-1.696;2022-07-23T05:35:14;8.03;;;4.30;;
17173;SDS011;8702;48.130;-1.696;2022-07-23T05:37:41;6.33;;;3.77;;
17173;SDS011;8702;48.130;-1.696;2022-07-23T05:40:08;8.53;;;4.43;;
17173;SDS011;8702;48.130;-1.696;2022-07-23T05:42:36;7.43;;;4.43;;
17173;SDS011;8702;48.130;-1.696;2022-07-23T05:45:04;8.13;;;4.47;;
17173;SDS011;8702;48.130;-1.696;2022-07-23T05:47:38;6.83;;;4.67;;
17173;SDS011;8702;48.130;-1.696;2022-07-23T05:50:08;7.00;;;4.17;;
17173;SDS011;8702;48.130;-1.696;2022-07-23T05:52:36;6.77;;;4.60;;
17173;SDS011;8702;48.130;-1.696;2022-07-23T05:55:05;8.53;;;4.70;;
17173;SDS011;8702;48.130;-1.696;2022-07-23T05:57:34;9.70;;;4.77;;
17173;SDS011;8702;48.130;-1.696;2022-07-23T06:00:02;9.03;;;4.40;;
17173;SDS011;8702;48.130;-1.696;2022-07-23T06:02:31;7.13;;;4.70;;
17173;SDS011;8702;48.130;-1.696;2022-07-23T06:04:58;8.60;;;4.50;;
17173;SDS011;8702;48.130;-1.696;2022-07-23T06:07:26;6.37;;;4.40;;
17173;SDS011;8702;48.130;-1.696;2022-07-23T06:09:53;8.57;;;4.67;;
17173;SDS011;8702;48.130;-1.696;2022-07-23T06:12:20;10.10;;;5.07;;
17173;SDS011;8702;48.130;-1.696;2022-07-23T06:14:47;5.97;;;4.00;;
17173;SDS011;8702;48.130;-1.696;2022-07-23T06:17:14;8.07;;;4.47;;
17173;SDS011;8702;48.130;-1.696;2022-07-23T06:19:41;8.77;;;5.00;;
17173;SDS011;8702;48.130;-1.696;2022-07-23T06:22:08;7.83;;;4.43;;
17173;SDS011;8702;48.130;-1.696;2022-07-23T06:24:37;9.60;;;4.70;;
17173;SDS011;8702;48.130;-1.696;2022-07-23T06:27:04;9.20;;;4.90;;
17173;SDS011;8702;48.130;-1.696;2022-07-23T06:29:31;5.73;;;3.90;;
17173;SDS011;8702;48.130;-1.696;2022-07-23T06:31:58;7.50;;;4.27;;
17173;SDS011;8702;48.130;-1.696;2022-07-23T06:34:25;6.20;;;4.40;;
17173;SDS011;8702;48.130;-1.696;2022-07-23T06:36:52;6.90;;;4.63;;
17173;SDS011;8702;48.130;-1.696;2022-07-23T06:39:19;5.60;;;3.80;;
17173;SDS011;8702;48.130;-1.696;2022-07-23T06:41:48;8.13;;;4.83;;
17173;SDS011;8702;48.130;-1.696;2022-07-23T06:44:15;10.07;;;4.80;;
17173;SDS011;8702;48.130;-1.696;2022-07-23T06:46:41;8.13;;;4.27;;
17173;SDS011;8702;48.130;-1.696;2022-07-23T06:49:09;10.07;;;4.80;;
17173;SDS011;8702;48.130;-1.696;2022-07-23T06:51:36;8.40;;;4.40;;
17173;SDS011;8702;48.130;-1.696;2022-07-23T06:54:03;11.17;;;4.47;;
17173;SDS011;8702;48.130;-1.696;2022-07-23T06:56:30;6.67;;;4.67;;
17173;SDS011;8702;48.130;-1.696;2022-07-23T06:58:58;9.67;;;4.40;;
17173;SDS011;8702;48.130;-1.696;2022-07-23T07:01:25;9.60;;;4.13;;
17173;SDS011;8702;48.130;-1.696;2022-07-23T07:03:52;7.47;;;4.77;;
17173;SDS011;8702;48.130;-1.696;2022-07-23T07:06:19;8.97;;;4.50;;
17173;SDS011;8702;48.130;-1.696;2022-07-23T07:08:46;5.47;;;4.43;;
17173;SDS011;8702;48.130;-1.696;2022-07-23T07:11:13;5.87;;;4.37;;
17173;SDS011;8702;48.130;-1.696;2022-07-23T07:13:40;9.83;;;4.70;;
17173;SDS011;8702;48.130;-1.696;2022-07-23T07:16:09;7.80;;;4.57;;
17173;SDS011;8702;48.130;-1.696;2022-07-23T07:18:36;6.63;;;4.33;;
17173;SDS011;8702;48.130;-1.696;2022-07-23T07:21:03;6.13;;;3.90;;
17173;SDS011;8702;48.130;-1.696;2022-07-23T07:23:30;9.07;;;4.53;;
17173;SDS011;8702;48.130;-1.696;2022-07-23T07:25:57;6.33;;;4.23;;
17173;SDS011;8702;48.130;-1.696;2022-07-23T07:28:24;8.30;;;4.37;;
17173;SDS011;8702;48.130;-1.696;2022-07-23T07:30:51;6.13;;;3.80;;
17173;SDS011;8702;48.130;-1.696;2022-07-23T07:33:19;10.30;;;4.17;;
17173;SDS011;8702;48.130;-1.696;2022-07-23T07:35:47;4.93;;;3.70;;
17173;SDS011;8702;48.130;-1.696;2022-07-23T07:38:14;6.20;;;3.43;;
17173;SDS011;8702;48.130;-1.696;2022-07-23T07:40:41;8.90;;;4.40;;
17173;SDS011;8702;48.130;-1.696;2022-07-23T07:43:07;5.80;;;3.67;;
17173;SDS011;8702;48.130;-1.696;2022-07-23T07:45:34;9.10;;;3.87;;
17173;SDS011;8702;48.130;-1.696;2022-07-23T07:48:01;11.40;;;4.10;;
17173;SDS011;8702;48.130;-1.696;2022-07-23T07:50:30;7.10;;;3.60;;
17173;SDS011;8702;48.130;-1.696;2022-07-23T07:52:57;9.63;;;3.47;;
17173;SDS011;8702;48.130;-1.696;2022-07-23T07:55:24;7.63;;;3.60;;
17173;SDS011;8702;48.130;-1.696;2022-07-23T07:57:52;5.00;;;3.30;;
17173;SDS011;8702;48.130;-1.696;2022-07-23T08:00:19;5.23;;;3.07;;
17173;SDS011;8702;48.130;-1.696;2022-07-23T08:02:46;4.47;;;3.10;;
17173;SDS011;8702;48.130;-1.696;2022-07-23T08:05:18;8.63;;;3.10;;
17173;SDS011;8702;48.130;-1.696;2022-07-23T08:07:47;7.43;;;3.27;;
17173;SDS011;8702;48.130;-1.696;2022-07-23T08:10:14;13.07;;;2.73;;
17173;SDS011;8702;48.130;-1.696;2022-07-23T08:12:42;3.83;;;2.50;;
17173;SDS011;8702;48.130;-1.696;2022-07-23T08:15:11;4.87;;;2.90;;
17173;SDS011;8702;48.130;-1.696;2022-07-23T08:17:39;5.40;;;2.57;;
17173;SDS011;8702;48.130;-1.696;2022-07-23T08:20:07;6.33;;;2.67;;
17173;SDS011;8702;48.130;-1.696;2022-07-23T08:22:42;4.90;;;2.50;;
17173;SDS011;8702;48.130;-1.696;2022-07-23T08:25:15;3.80;;;2.30;;
17173;SDS011;8702;48.130;-1.696;2022-07-23T08:27:43;5.87;;;2.70;;
17173;SDS011;8702;48.130;-1.696;2022-07-23T08:30:10;5.73;;;2.50;;
17173;SDS011;8702;48.130;-1.696;2022-07-23T08:32:53;4.20;;;2.50;;
17173;SDS011;8702;48.130;-1.696;2022-07-23T08:35:23;5.60;;;2.20;;
17173;SDS011;8702;48.130;-1.696;2022-07-23T08:37:54;5.87;;;2.80;;
17173;SDS011;8702;48.130;-1.696;2022-07-23T08:40:21;4.83;;;2.23;;
17173;SDS011;8702;48.130;-1.696;2022-07-23T08:42:49;6.03;;;2.40;;
17173;SDS011;8702;48.130;-1.696;2022-07-23T08:45:18;5.57;;;2.13;;
17173;SDS011;8702;48.130;-1.696;2022-07-23T08:47:47;6.03;;;2.03;;
17173;SDS011;8702;48.130;-1.696;2022-07-23T08:50:16;5.57;;;2.20;;
17173;SDS011;8702;48.130;-1.696;2022-07-23T08:52:43;3.83;;;1.93;;
17173;SDS011;8702;48.130;-1.696;2022-07-23T08:55:12;3.63;;;1.97;;
17173;SDS011;8702;48.130;-1.696;2022-07-23T08:57:39;4.70;;;2.13;;
17173;SDS011;8702;48.130;-1.696;2022-07-23T09:00:06;4.03;;;2.03;;
17173;SDS011;8702;48.130;-1.696;2022-07-23T09:02:38;2.87;;;1.60;;
17173;SDS011;8702;48.130;-1.696;2022-07-23T09:05:07;5.77;;;2.40;;
17173;SDS011;8702;48.130;-1.696;2022-07-23T09:07:35;8.77;;;2.20;;
17173;SDS011;8702;48.130;-1.696;2022-07-23T09:10:06;5.27;;;2.10;;
17173;SDS011;8702;48.130;-1.696;2022-07-23T09:12:36;6.50;;;1.97;;
17173;SDS011;8702;48.130;-1.696;2022-07-23T09:15:04;4.90;;;1.90;;
17173;SDS011;8702;48.130;-1.696;2022-07-23T09:17:39;4.83;;;1.97;;
17173;SDS011;8702;48.130;-1.696;2022-07-23T09:20:07;4.80;;;2.03;;
17173;SDS011;8702;48.130;-1.696;2022-07-23T09:22:37;4.23;;;2.00;;
17173;SDS011;8702;48.130;-1.696;2022-07-23T09:25:05;4.50;;;1.93;;
17173;SDS011;8702;48.130;-1.696;2022-07-23T09:27:49;5.80;;;2.07;;
17173;SDS011;8702;48.130;-1.696;2022-07-23T09:30:19;5.47;;;1.90;;
17173;SDS011;8702;48.130;-1.696;2022-07-23T09:35:45;5.83;;;2.00;;
17173;SDS011;8702;48.130;-1.696;2022-07-23T09:38:13;5.60;;;1.70;;
17173;SDS011;8702;48.130;-1.696;2022-07-23T09:40:41;4.37;;;1.53;;
17173;SDS011;8702;48.130;-1.696;2022-07-23T09:43:10;4.40;;;1.90;;
17173;SDS011;8702;48.130;-1.696;2022-07-23T09:45:38;3.53;;;1.47;;
17173;SDS011;8702;48.130;-1.696;2022-07-23T09:48:11;6.77;;;1.90;;
17173;SDS011;8702;48.130;-1.696;2022-07-23T09:50:40;6.13;;;1.87;;
17173;SDS011;8702;48.130;-1.696;2022-07-23T09:53:07;3.57;;;1.70;;
17173;SDS011;8702;48.130;-1.696;2022-07-23T09:55:35;3.63;;;1.90;;
17173;SDS011;8702;48.130;-1.696;2022-07-23T09:58:03;3.13;;;1.60;;
17173;SDS011;8702;48.130;-1.696;2022-07-23T10:00:33;7.07;;;2.27;;
17173;SDS011;8702;48.130;-1.696;2022-07-23T10:03:01;3.67;;;1.90;;
17173;SDS011;8702;48.130;-1.696;2022-07-23T10:05:30;3.90;;;1.90;;
17173;SDS011;8702;48.130;-1.696;2022-07-23T10:07:57;5.50;;;1.80;;
17173;SDS011;8702;48.130;-1.696;2022-07-23T10:10:26;6.07;;;2.10;;
17173;SDS011;8702;48.130;-1.696;2022-07-23T10:12:56;2.80;;;1.50;;
17173;SDS011;8702;48.130;-1.696;2022-07-23T10:15:38;5.30;;;1.80;;
17173;SDS011;8702;48.130;-1.696;2022-07-23T10:18:07;4.37;;;1.60;;
17173;SDS011;8702;48.130;-1.696;2022-07-23T10:20:37;5.23;;;1.90;;
17173;SDS011;8702;48.130;-1.696;2022-07-23T10:23:07;4.37;;;1.80;;
17173;SDS011;8702;48.130;-1.696;2022-07-23T10:25:44;2.50;;;1.50;;
17173;SDS011;8702;48.130;-1.696;2022-07-23T10:31:17;4.03;;;1.90;;
17173;SDS011;8702;48.130;-1.696;2022-07-23T10:33:56;4.53;;;1.60;;
17173;SDS011;8702;48.130;-1.696;2022-07-23T10:36:30;3.20;;;1.40;;
17173;SDS011;8702;48.130;-1.696;2022-07-23T10:39:08;4.13;;;1.50;;
17173;SDS011;8702;48.130;-1.696;2022-07-23T10:41:41;4.87;;;1.77;;
17173;SDS011;8702;48.130;-1.696;2022-07-23T10:44:09;4.83;;;1.70;;
17173;SDS011;8702;48.130;-1.696;2022-07-23T10:49:28;3.90;;;1.80;;
17173;SDS011;8702;48.130;-1.696;2022-07-23T10:54:44;2.03;;;1.30;;
17173;SDS011;8702;48.130;-1.696;2022-07-23T10:57:12;2.80;;;1.60;;
17173;SDS011;8702;48.130;-1.696;2022-07-23T11:02:39;4.07;;;1.60;;
17173;SDS011;8702;48.130;-1.696;2022-07-23T11:05:08;4.30;;;1.60;;
17173;SDS011;8702;48.130;-1.696;2022-07-23T11:07:37;2.13;;;1.37;;
17173;SDS011;8702;48.130;-1.696;2022-07-23T11:10:37;3.47;;;1.67;;
17173;SDS011;8702;48.130;-1.696;2022-07-23T11:16:10;1.83;;;1.30;;
17173;SDS011;8702;48.130;-1.696;2022-07-23T11:21:45;3.37;;;1.50;;
17173;SDS011;8702;48.130;-1.696;2022-07-23T11:24:19;3.83;;;1.67;;
17173;SDS011;8702;48.130;-1.696;2022-07-23T11:29:38;3.97;;;1.40;;
17173;SDS011;8702;48.130;-1.696;2022-07-23T11:35:22;2.47;;;1.30;;
17173;SDS011;8702;48.130;-1.696;2022-07-23T11:37:54;2.50;;;1.43;;
17173;SDS011;8702;48.130;-1.696;2022-07-23T11:40:29;2.57;;;1.60;;
17173;SDS011;8702;48.130;-1.696;2022-07-23T11:42:57;3.47;;;1.33;;
17173;SDS011;8702;48.130;-1.696;2022-07-23T11:45:31;1.70;;;1.40;;
17173;SDS011;8702;48.130;-1.696;2022-07-23T11:48:00;3.37;;;1.30;;
17173;SDS011;8702;48.130;-1.696;2022-07-23T11:50:28;2.07;;;1.30;;
17173;SDS011;8702;48.130;-1.696;2022-07-23T11:52:55;3.43;;;1.53;;
17173;SDS011;8702;48.130;-1.696;2022-07-23T11:55:22;2.83;;;1.37;;
17173;SDS011;8702;48.130;-1.696;2022-07-23T11:57:50;2.27;;;1.40;;
17173;SDS011;8702;48.130;-1.696;2022-07-23T12:00:19;3.30;;;1.50;;
17173;SDS011;8702;48.130;-1.696;2022-07-23T12:02:48;2.70;;;1.00;;
17173;SDS011;8702;48.130;-1.696;2022-07-23T12:05:18;4.00;;;1.30;;
17173;SDS011;8702;48.130;-1.696;2022-07-23T12:07:47;2.07;;;1.20;;
17173;SDS011;8702;48.130;-1.696;2022-07-23T12:10:16;2.63;;;1.40;;
17173;SDS011;8702;48.130;-1.696;2022-07-23T12:12:45;2.43;;;1.10;;
17173;SDS011;8702;48.130;-1.696;2022-07-23T12:15:15;2.53;;;1.20;;
17173;SDS011;8702;48.130;-1.696;2022-07-23T12:17:45;1.80;;;1.10;;
17173;SDS011;8702;48.130;-1.696;2022-07-23T12:20:14;3.70;;;1.40;;
17173;SDS011;8702;48.130;-1.696;2022-07-23T12:22:44;1.60;;;1.20;;
17173;SDS011;8702;48.130;-1.696;2022-07-23T12:25:14;2.77;;;1.40;;
17173;SDS011;8702;48.130;-1.696;2022-07-23T12:27:43;1.37;;;1.10;;
17173;SDS011;8702;48.130;-1.696;2022-07-23T12:30:17;2.47;;;1.60;;
17173;SDS011;8702;48.130;-1.696;2022-07-23T12:32:46;2.57;;;1.40;;
17173;SDS011;8702;48.130;-1.696;2022-07-23T12:35:16;2.43;;;1.40;;
17173;SDS011;8702;48.130;-1.696;2022-07-23T12:37:44;1.27;;;1.17;;
17173;SDS011;8702;48.130;-1.696;2022-07-23T12:40:24;1.80;;;1.20;;
17173;SDS011;8702;48.130;-1.696;2022-07-23T12:42:53;3.53;;;1.40;;
17173;SDS011;8702;48.130;-1.696;2022-07-23T12:45:22;1.27;;;1.17;;
17173;SDS011;8702;48.130;-1.696;2022-07-23T12:47:53;6.03;;;1.43;;
17173;SDS011;8702;48.130;-1.696;2022-07-23T12:53:20;2.60;;;1.20;;
17173;SDS011;8702;48.130;-1.696;2022-07-23T12:55:49;2.50;;;1.07;;
17173;SDS011;8702;48.130;-1.696;2022-07-23T12:58:18;4.07;;;1.43;;
17173;SDS011;8702;48.130;-1.696;2022-07-23T13:00:51;2.93;;;1.23;;
17173;SDS011;8702;48.130;-1.696;2022-07-23T13:03:23;3.10;;;1.40;;
17173;SDS011;8702;48.130;-1.696;2022-07-23T13:05:51;2.53;;;1.33;;
17173;SDS011;8702;48.130;-1.696;2022-07-23T13:08:20;5.00;;;1.37;;
17173;SDS011;8702;48.130;-1.696;2022-07-23T13:10:47;3.80;;;1.37;;
17173;SDS011;8702;48.130;-1.696;2022-07-23T13:13:17;3.13;;;1.43;;
17173;SDS011;8702;48.130;-1.696;2022-07-23T13:15:45;2.13;;;1.17;;
17173;SDS011;8702;48.130;-1.696;2022-07-23T13:18:12;3.40;;;1.10;;
17173;SDS011;8702;48.130;-1.696;2022-07-23T13:20:39;1.10;;;0.80;;
17173;SDS011;8702;48.130;-1.696;2022-07-23T13:23:06;1.67;;;1.30;;
17173;SDS011;8702;48.130;-1.696;2022-07-23T13:25:35;2.40;;;1.20;;
17173;SDS011;8702;48.130;-1.696;2022-07-23T13:28:02;2.23;;;1.30;;
17173;SDS011;8702;48.130;-1.696;2022-07-23T13:30:29;2.63;;;1.10;;
17173;SDS011;8702;48.130;-1.696;2022-07-23T13:32:56;1.03;;;0.90;;
17173;SDS011;8702;48.130;-1.696;2022-07-23T13:35:23;2.13;;;1.17;;
17173;SDS011;8702;48.130;-1.696;2022-07-23T13:37:50;2.20;;;1.23;;
17173;SDS011;8702;48.130;-1.696;2022-07-23T13:40:17;1.80;;;1.40;;
17173;SDS011;8702;48.130;-1.696;2022-07-23T13:42:46;1.83;;;1.20;;
17173;SDS011;8702;48.130;-1.696;2022-07-23T13:45:14;1.53;;;0.90;;
17173;SDS011;8702;48.130;-1.696;2022-07-23T13:47:41;1.70;;;1.10;;
17173;SDS011;8702;48.130;-1.696;2022-07-23T13:50:09;1.40;;;1.00;;
17173;SDS011;8702;48.130;-1.696;2022-07-23T13:52:35;2.03;;;1.13;;
17173;SDS011;8702;48.130;-1.696;2022-07-23T13:55:03;2.00;;;1.13;;
17173;SDS011;8702;48.130;-1.696;2022-07-23T13:57:32;3.87;;;1.40;;
17173;SDS011;8702;48.130;-1.696;2022-07-23T14:00:01;1.63;;;1.20;;
17173;SDS011;8702;48.130;-1.696;2022-07-23T14:02:29;1.27;;;0.90;;
17173;SDS011;8702;48.130;-1.696;2022-07-23T14:04:56;1.40;;;1.17;;
17173;SDS011;8702;48.130;-1.696;2022-07-23T14:07:23;2.57;;;1.20;;
17173;SDS011;8702;48.130;-1.696;2022-07-23T14:09:50;1.83;;;1.00;;
17173;SDS011;8702;48.130;-1.696;2022-07-23T14:12:17;1.50;;;1.10;;
17173;SDS011;8702;48.130;-1.696;2022-07-23T14:14:44;3.97;;;1.30;;
17173;SDS011;8702;48.130;-1.696;2022-07-23T14:17:13;1.80;;;1.23;;
17173;SDS011;8702;48.130;-1.696;2022-07-23T14:19:40;1.20;;;1.00;;
17173;SDS011;8702;48.130;-1.696;2022-07-23T14:22:07;1.57;;;1.20;;
17173;SDS011;8702;48.130;-1.696;2022-07-23T14:24:34;1.53;;;0.97;;
17173;SDS011;8702;48.130;-1.696;2022-07-23T14:27:01;2.43;;;1.30;;
17173;SDS011;8702;48.130;-1.696;2022-07-23T14:29:29;1.03;;;0.90;;
17173;SDS011;8702;48.130;-1.696;2022-07-23T14:31:57;1.83;;;1.00;;
17173;SDS011;8702;48.130;-1.696;2022-07-23T14:34:26;2.83;;;1.33;;
17173;SDS011;8702;48.130;-1.696;2022-07-23T14:36:53;1.23;;;1.13;;
17173;SDS011;8702;48.130;-1.696;2022-07-23T14:39:21;1.10;;;1.00;;
17173;SDS011;8702;48.130;-1.696;2022-07-23T14:41:47;2.30;;;1.20;;
17173;SDS011;8702;48.130;-1.696;2022-07-23T14:44:14;1.00;;;0.80;;
17173;SDS011;8702;48.130;-1.696;2022-07-23T14:46:41;3.87;;;1.20;;
17173;SDS011;8702;48.130;-1.696;2022-07-23T14:49:08;2.03;;;1.17;;
17173;SDS011;8702;48.130;-1.696;2022-07-23T14:51:37;1.20;;;1.03;;
17173;SDS011;8702;48.130;-1.696;2022-07-23T14:54:06;1.13;;;0.83;;
17173;SDS011;8702;48.130;-1.696;2022-07-23T14:56:33;1.37;;;0.90;;
17173;SDS011;8702;48.130;-1.696;2022-07-23T14:59:01;6.40;;;1.00;;
17173;SDS011;8702;48.130;-1.696;2022-07-23T15:01:28;2.25;;;1.00;;
17173;SDS011;8702;48.130;-1.696;2022-07-23T15:03:55;2.33;;;1.20;;
17173;SDS011;8702;48.130;-1.696;2022-07-23T15:06:22;2.75;;;1.00;;
17173;SDS011;8702;48.130;-1.696;2022-07-23T15:08:51;1.55;;;0.98;;
17173;SDS011;8702;48.130;-1.696;2022-07-23T15:11:18;1.50;;;0.93;;
17173;SDS011;8702;48.130;-1.696;2022-07-23T15:13:45;3.05;;;0.90;;
17173;SDS011;8702;48.130;-1.696;2022-07-23T15:16:12;2.78;;;1.00;;
17173;SDS011;8702;48.130;-1.696;2022-07-23T15:18:39;1.50;;;0.90;;
17173;SDS011;8702;48.130;-1.696;2022-07-23T15:21:06;1.27;;;1.08;;
17173;SDS011;8702;48.130;-1.696;2022-07-23T15:23:33;1.50;;;1.23;;